TRA65U EHAM-LOWI
Flight info
| Callsign | TRA65U |
|---|---|
| Flight time | 1h 36m |
| Altitude | 31000 |
| Route | EDUPO Z739 MISGO DCT ASBON DCT TUSUK DCT ULNOK L607 TEDGO DCT BATUB M738 MADEB MADEB1B |
| Aircraft | B738/M-SDE2E3FGHIRWXY/LB1 |
Departure
| Time | 2026-05-07 16:46 |
|---|---|
| Airport | Amsterdam Airport Schiphol (EHAM) |
Arrival
| Time | 2026-05-07 18:22 |
|---|---|
| Airport | Innsbruck Airport (LOWI) |
| Time | Latitude | Longitude | Altitude | Speed | Heading |
|---|---|---|---|---|---|
| 2026-05-07 15:49 | 52.30901 | 4.77175 | -2 ft | 0 kts | 3° |
| 2026-05-07 16:22 | 52.30900 | 4.77175 | -2 ft | 1 kts | 3° |
| 2026-05-07 16:23 | 52.30875 | 4.77173 | -2 ft | 4 kts | 8° |
| 2026-05-07 16:23 | 52.30852 | 4.77161 | -2 ft | 4 kts | 49° |
| 2026-05-07 16:23 | 52.30846 | 4.77144 | -2 ft | 0 kts | 93° |
| 2026-05-07 16:26 | 52.30846 | 4.77147 | -2 ft | 1 kts | 93° |
| 2026-05-07 16:26 | 52.30845 | 4.77164 | -2 ft | 3 kts | 93° |
| 2026-05-07 16:26 | 52.30844 | 4.77209 | -2 ft | 8 kts | 93° |
| 2026-05-07 16:27 | 52.30839 | 4.77345 | -2 ft | 9 kts | 92° |
| 2026-05-07 16:27 | 52.30845 | 4.77442 | -2 ft | 9 kts | 52° |
| 2026-05-07 16:27 | 52.30903 | 4.77473 | -2 ft | 9 kts | 6° |
| 2026-05-07 16:27 | 52.30978 | 4.77481 | -2 ft | 12 kts | 3° |
| 2026-05-07 16:28 | 52.31076 | 4.77490 | -2 ft | 16 kts | 4° |
| 2026-05-07 16:28 | 52.31188 | 4.77500 | -2 ft | 16 kts | 3° |
| 2026-05-07 16:28 | 52.31282 | 4.77492 | -2 ft | 13 kts | 341° |
| 2026-05-07 16:28 | 52.31353 | 4.77398 | -2 ft | 14 kts | 313° |
| 2026-05-07 16:29 | 52.31423 | 4.77263 | -2 ft | 16 kts | 310° |
| 2026-05-07 16:29 | 52.31481 | 4.77117 | -2 ft | 15 kts | 281° |
| 2026-05-07 16:29 | 52.31480 | 4.76955 | -2 ft | 14 kts | 266° |
| 2026-05-07 16:29 | 52.31474 | 4.76796 | -2 ft | 15 kts | 266° |
| 2026-05-07 16:30 | 52.31468 | 4.76609 | -2 ft | 17 kts | 267° |
| 2026-05-07 16:30 | 52.31461 | 4.76403 | -2 ft | 19 kts | 267° |
| 2026-05-07 16:30 | 52.31454 | 4.76185 | -2 ft | 19 kts | 266° |
| 2026-05-07 16:30 | 52.31446 | 4.75975 | -2 ft | 18 kts | 266° |
| 2026-05-07 16:31 | 52.31438 | 4.75772 | -2 ft | 18 kts | 266° |
| 2026-05-07 16:31 | 52.31431 | 4.75575 | -2 ft | 17 kts | 266° |
| 2026-05-07 16:31 | 52.31424 | 4.75386 | -2 ft | 16 kts | 266° |
| 2026-05-07 16:31 | 52.31417 | 4.75204 | -2 ft | 16 kts | 267° |
| 2026-05-07 16:32 | 52.31412 | 4.75019 | -2 ft | 16 kts | 267° |
| 2026-05-07 16:32 | 52.31406 | 4.74840 | -2 ft | 16 kts | 267° |
| 2026-05-07 16:32 | 52.31401 | 4.74667 | -2 ft | 15 kts | 267° |
| 2026-05-07 16:32 | 52.31396 | 4.74502 | -2 ft | 14 kts | 267° |
| 2026-05-07 16:33 | 52.31387 | 4.74345 | -2 ft | 14 kts | 252° |
| 2026-05-07 16:33 | 52.31311 | 4.74276 | -2 ft | 13 kts | 184° |
| 2026-05-07 16:33 | 52.31218 | 4.74267 | -2 ft | 14 kts | 183° |
| 2026-05-07 16:33 | 52.31107 | 4.74257 | -2 ft | 17 kts | 183° |
| 2026-05-07 16:34 | 52.30978 | 4.74245 | -2 ft | 20 kts | 183° |
| 2026-05-07 16:34 | 52.30832 | 4.74230 | -2 ft | 22 kts | 184° |
| 2026-05-07 16:34 | 52.30678 | 4.74216 | -2 ft | 22 kts | 183° |
| 2026-05-07 16:34 | 52.30527 | 4.74203 | -2 ft | 21 kts | 183° |
| 2026-05-07 16:35 | 52.30380 | 4.74189 | -2 ft | 21 kts | 186° |
| 2026-05-07 16:35 | 52.30253 | 4.74113 | -2 ft | 19 kts | 203° |
| 2026-05-07 16:35 | 52.30126 | 4.74058 | -2 ft | 19 kts | 190° |
| 2026-05-07 16:35 | 52.30013 | 4.73972 | -2 ft | 18 kts | 222° |
| 2026-05-07 16:36 | 52.29948 | 4.73804 | -2 ft | 17 kts | 244° |
| 2026-05-07 16:36 | 52.29910 | 4.73624 | -2 ft | 16 kts | 267° |
| 2026-05-07 16:36 | 52.29916 | 4.73441 | -2 ft | 16 kts | 276° |
| 2026-05-07 16:36 | 52.29978 | 4.73305 | -2 ft | 16 kts | 340° |
| 2026-05-07 16:37 | 52.30090 | 4.73303 | -2 ft | 16 kts | 4° |
| 2026-05-07 16:37 | 52.30201 | 4.73313 | -2 ft | 16 kts | 3° |
| 2026-05-07 16:37 | 52.30317 | 4.73323 | -2 ft | 17 kts | 3° |
| 2026-05-07 16:37 | 52.30437 | 4.73334 | -2 ft | 18 kts | 3° |
| 2026-05-07 16:38 | 52.30577 | 4.73347 | -2 ft | 22 kts | 3° |
| 2026-05-07 16:38 | 52.30742 | 4.73362 | -2 ft | 25 kts | 3° |
| 2026-05-07 16:38 | 52.30909 | 4.73376 | -2 ft | 23 kts | 3° |
| 2026-05-07 16:38 | 52.31067 | 4.73393 | -2 ft | 22 kts | 3° |
| 2026-05-07 16:39 | 52.31220 | 4.73406 | -2 ft | 22 kts | 3° |
| 2026-05-07 16:39 | 52.31368 | 4.73419 | -2 ft | 21 kts | 3° |
| 2026-05-07 16:39 | 52.31518 | 4.73433 | -2 ft | 22 kts | 3° |
| 2026-05-07 16:39 | 52.31671 | 4.73448 | -2 ft | 22 kts | 3° |
| 2026-05-07 16:40 | 52.31820 | 4.73461 | -2 ft | 21 kts | 3° |
| 2026-05-07 16:40 | 52.31964 | 4.73468 | -2 ft | 20 kts | 354° |
| 2026-05-07 16:40 | 52.32085 | 4.73362 | -2 ft | 20 kts | 319° |
| 2026-05-07 16:40 | 52.32189 | 4.73215 | -2 ft | 21 kts | 319° |
| 2026-05-07 16:41 | 52.32263 | 4.73111 | -2 ft | 22 kts | 319° |
| 2026-05-07 16:41 | 52.32386 | 4.72939 | -2 ft | 24 kts | 320° |
| 2026-05-07 16:41 | 52.32511 | 4.72762 | -2 ft | 23 kts | 319° |
| 2026-05-07 16:41 | 52.32631 | 4.72594 | -2 ft | 22 kts | 319° |
| 2026-05-07 16:42 | 52.32773 | 4.72347 | -2 ft | 24 kts | 311° |
| 2026-05-07 16:42 | 52.32848 | 4.72207 | -2 ft | 25 kts | 311° |
| 2026-05-07 16:42 | 52.32965 | 4.71991 | -2 ft | 25 kts | 311° |
| 2026-05-07 16:42 | 52.33075 | 4.71787 | -2 ft | 23 kts | 311° |
| 2026-05-07 16:43 | 52.33146 | 4.71624 | -2 ft | 17 kts | 284° |
| 2026-05-07 16:43 | 52.33103 | 4.71457 | -2 ft | 17 kts | 221° |
| 2026-05-07 16:43 | 52.33007 | 4.71319 | -2 ft | 20 kts | 221° |
| 2026-05-07 16:43 | 52.32898 | 4.71165 | -2 ft | 16 kts | 221° |
| 2026-05-07 16:44 | 52.32861 | 4.71051 | -3 ft | 1 kts | 272° |
| 2026-05-07 16:44 | 52.32861 | 4.71050 | -2 ft | 0 kts | 272° |
| 2026-05-07 16:45 | 52.32861 | 4.71030 | -3 ft | 6 kts | 272° |
| 2026-05-07 16:45 | 52.32867 | 4.70921 | -3 ft | 11 kts | 291° |
| 2026-05-07 16:45 | 52.32918 | 4.70898 | -3 ft | 0 kts | 1° |
| 2026-05-07 16:45 | 52.32990 | 4.70903 | -4 ft | 38 kts | 3° |
| 2026-05-07 16:46 | 52.33493 | 4.70950 | -3 ft | 105 kts | 3° |
| 2026-05-07 16:46 | 52.34411 | 4.71035 | 38 ft | 153 kts | 3° |
| 2026-05-07 16:46 | 52.35507 | 4.71100 | 580 ft | 161 kts | 2° |
| 2026-05-07 16:46 | 52.36629 | 4.71184 | 1358 ft | 158 kts | 4° |
| 2026-05-07 16:47 | 52.37747 | 4.71276 | 2006 ft | 167 kts | 4° |
| 2026-05-07 16:47 | 52.38967 | 4.71402 | 2411 ft | 190 kts | 5° |
| 2026-05-07 16:47 | 52.40349 | 4.71526 | 2827 ft | 206 kts | 3° |
| 2026-05-07 16:47 | 52.41844 | 4.71714 | 3077 ft | 228 kts | 14° |
| 2026-05-07 16:48 | 52.43368 | 4.72850 | 3320 ft | 251 kts | 32° |
| 2026-05-07 16:48 | 52.44887 | 4.74365 | 3991 ft | 259 kts | 30° |
| 2026-05-07 16:48 | 52.46467 | 4.75847 | 4748 ft | 263 kts | 32° |
| 2026-05-07 16:48 | 52.47769 | 4.77975 | 5421 ft | 270 kts | 64° |
| 2026-05-07 16:49 | 52.48252 | 4.80922 | 6193 ft | 270 kts | 86° |
| 2026-05-07 16:49 | 52.48409 | 4.84006 | 6928 ft | 273 kts | 87° |
| 2026-05-07 16:49 | 52.48554 | 4.87144 | 7601 ft | 278 kts | 88° |
| 2026-05-07 16:49 | 52.48417 | 4.90299 | 8299 ft | 279 kts | 110° |
| 2026-05-07 16:50 | 52.47416 | 4.93004 | 8999 ft | 280 kts | 136° |
| 2026-05-07 16:50 | 52.45890 | 4.95024 | 9693 ft | 284 kts | 145° |
| 2026-05-07 16:50 | 52.44253 | 4.96890 | 10324 ft | 290 kts | 147° |
| 2026-05-07 16:50 | 52.42524 | 4.98830 | 10521 ft | 312 kts | 147° |
| 2026-05-07 16:51 | 52.40678 | 5.00917 | 10683 ft | 333 kts | 147° |
| 2026-05-07 16:51 | 52.38722 | 5.03154 | 10926 ft | 350 kts | 146° |
| 2026-05-07 16:51 | 52.36737 | 5.05443 | 11454 ft | 356 kts | 146° |
| 2026-05-07 16:51 | 52.34706 | 5.07790 | 12123 ft | 359 kts | 146° |
| 2026-05-07 16:52 | 52.32721 | 5.10291 | 12804 ft | 363 kts | 137° |
| 2026-05-07 16:52 | 52.30992 | 5.13325 | 13474 ft | 367 kts | 131° |
| 2026-05-07 16:52 | 52.29337 | 5.16547 | 14130 ft | 371 kts | 131° |
| 2026-05-07 16:52 | 52.27649 | 5.19773 | 14765 ft | 374 kts | 132° |
| 2026-05-07 16:53 | 52.25916 | 5.22973 | 15428 ft | 377 kts | 133° |
| 2026-05-07 16:53 | 52.24157 | 5.26190 | 16054 ft | 381 kts | 131° |
| 2026-05-07 16:53 | 52.22527 | 5.29622 | 16709 ft | 384 kts | 126° |
| 2026-05-07 16:53 | 52.20993 | 5.33228 | 17300 ft | 390 kts | 125° |
| 2026-05-07 16:54 | 52.19484 | 5.36851 | 17897 ft | 393 kts | 125° |
| 2026-05-07 16:54 | 52.18022 | 5.40324 | 18433 ft | 397 kts | 125° |
| 2026-05-07 16:54 | 52.16438 | 5.44028 | 18989 ft | 400 kts | 126° |
| 2026-05-07 16:54 | 52.14829 | 5.47744 | 19537 ft | 403 kts | 126° |
| 2026-05-07 16:55 | 52.13198 | 5.51482 | 20056 ft | 406 kts | 126° |
| 2026-05-07 16:55 | 52.11551 | 5.55243 | 20578 ft | 409 kts | 126° |
| 2026-05-07 16:55 | 52.09893 | 5.59026 | 21089 ft | 412 kts | 126° |
| 2026-05-07 16:55 | 52.08222 | 5.62835 | 21615 ft | 416 kts | 127° |
| 2026-05-07 16:56 | 52.06534 | 5.66675 | 22127 ft | 419 kts | 127° |
| 2026-05-07 16:56 | 52.04754 | 5.70429 | 22607 ft | 421 kts | 131° |
| 2026-05-07 16:56 | 52.00837 | 5.77596 | 23560 ft | 427 kts | 133° |
| 2026-05-07 16:57 | 51.98862 | 5.81228 | 23960 ft | 430 kts | 133° |
| 2026-05-07 16:57 | 51.96893 | 5.84898 | 24361 ft | 432 kts | 132° |
| 2026-05-07 16:57 | 51.94917 | 5.88589 | 24761 ft | 434 kts | 132° |
| 2026-05-07 16:57 | 51.92929 | 5.92292 | 25148 ft | 437 kts | 132° |
| 2026-05-07 16:58 | 51.90930 | 5.96010 | 25522 ft | 439 kts | 133° |
| 2026-05-07 16:58 | 51.88920 | 5.99746 | 25887 ft | 441 kts | 133° |
| 2026-05-07 16:58 | 51.86895 | 6.03499 | 26224 ft | 444 kts | 133° |
| 2026-05-07 16:58 | 51.84855 | 6.07271 | 26573 ft | 446 kts | 133° |
| 2026-05-07 16:59 | 51.82797 | 6.11044 | 26927 ft | 448 kts | 133° |
| 2026-05-07 16:59 | 51.80728 | 6.14825 | 27275 ft | 450 kts | 133° |
| 2026-05-07 16:59 | 51.78646 | 6.18627 | 27604 ft | 452 kts | 133° |
| 2026-05-07 16:59 | 51.76578 | 6.22400 | 27929 ft | 455 kts | 133° |
| 2026-05-07 17:00 | 51.74477 | 6.26234 | 28249 ft | 457 kts | 133° |
| 2026-05-07 17:00 | 51.72371 | 6.30079 | 28654 ft | 456 kts | 133° |
| 2026-05-07 17:00 | 51.70274 | 6.33905 | 29150 ft | 454 kts | 133° |
| 2026-05-07 17:00 | 51.68184 | 6.37715 | 29679 ft | 451 kts | 133° |
| 2026-05-07 17:01 | 51.66105 | 6.41497 | 30136 ft | 451 kts | 133° |
| 2026-05-07 17:01 | 51.64022 | 6.45277 | 30477 ft | 451 kts | 133° |
| 2026-05-07 17:01 | 51.61936 | 6.49056 | 30788 ft | 452 kts | 133° |
| 2026-05-07 17:01 | 51.59844 | 6.52838 | 31054 ft | 453 kts | 133° |
| 2026-05-07 17:02 | 51.55622 | 6.60461 | 31050 ft | 457 kts | 133° |
| 2026-05-07 17:02 | 51.51424 | 6.68024 | 31041 ft | 450 kts | 133° |
| 2026-05-07 17:03 | 51.47245 | 6.75530 | 31053 ft | 451 kts | 133° |
| 2026-05-07 17:03 | 51.43082 | 6.82986 | 31054 ft | 452 kts | 133° |
| 2026-05-07 17:04 | 51.38509 | 6.89826 | 31042 ft | 450 kts | 148° |
| 2026-05-07 17:04 | 51.33190 | 6.95120 | 31050 ft | 450 kts | 149° |
| 2026-05-07 17:05 | 51.27851 | 7.00363 | 31050 ft | 451 kts | 149° |
| 2026-05-07 17:05 | 51.22518 | 7.05664 | 31052 ft | 452 kts | 149° |
| 2026-05-07 17:06 | 51.17220 | 7.10958 | 31049 ft | 452 kts | 149° |
| 2026-05-07 17:06 | 51.11886 | 7.16278 | 31046 ft | 453 kts | 149° |
| 2026-05-07 17:07 | 51.06537 | 7.21599 | 31047 ft | 453 kts | 149° |
| 2026-05-07 17:07 | 51.01189 | 7.26901 | 31054 ft | 453 kts | 149° |
| 2026-05-07 17:08 | 50.95827 | 7.32202 | 31052 ft | 454 kts | 149° |
| 2026-05-07 17:08 | 50.90453 | 7.37500 | 31046 ft | 454 kts | 149° |
| 2026-05-07 17:09 | 50.85088 | 7.42776 | 31048 ft | 454 kts | 149° |
| 2026-05-07 17:09 | 50.79721 | 7.48040 | 31048 ft | 453 kts | 149° |
| 2026-05-07 17:10 | 50.74393 | 7.53253 | 31054 ft | 453 kts | 149° |
| 2026-05-07 17:10 | 50.69081 | 7.58541 | 31049 ft | 453 kts | 147° |
| 2026-05-07 17:11 | 50.63827 | 7.64015 | 31049 ft | 453 kts | 147° |
| 2026-05-07 17:11 | 50.58569 | 7.69498 | 31047 ft | 453 kts | 147° |
| 2026-05-07 17:12 | 50.53291 | 7.74955 | 31042 ft | 454 kts | 147° |
| 2026-05-07 17:12 | 50.48003 | 7.80391 | 31051 ft | 454 kts | 147° |
| 2026-05-07 17:13 | 50.42712 | 7.85813 | 31051 ft | 454 kts | 147° |
| 2026-05-07 17:13 | 50.37412 | 7.91230 | 31042 ft | 455 kts | 148° |
| 2026-05-07 17:14 | 50.32110 | 7.96636 | 31054 ft | 455 kts | 148° |
| 2026-05-07 17:14 | 50.26831 | 8.02004 | 31047 ft | 455 kts | 148° |
| 2026-05-07 17:15 | 50.21522 | 8.07388 | 31048 ft | 455 kts | 148° |
| 2026-05-07 17:15 | 50.16205 | 8.12768 | 31050 ft | 455 kts | 148° |
| 2026-05-07 17:16 | 50.10867 | 8.18059 | 31038 ft | 455 kts | 150° |
| 2026-05-07 17:16 | 50.05417 | 8.23062 | 31046 ft | 454 kts | 150° |
| 2026-05-07 17:17 | 49.99957 | 8.28043 | 31053 ft | 455 kts | 150° |
| 2026-05-07 17:17 | 49.94491 | 8.33005 | 31041 ft | 454 kts | 153° |
| 2026-05-07 17:18 | 49.88804 | 8.37276 | 31042 ft | 454 kts | 156° |
| 2026-05-07 17:18 | 49.83063 | 8.41332 | 31042 ft | 453 kts | 156° |
| 2026-05-07 17:19 | 49.77341 | 8.45455 | 31044 ft | 453 kts | 156° |
| 2026-05-07 17:19 | 49.71629 | 8.49627 | 31051 ft | 454 kts | 156° |
| 2026-05-07 17:20 | 49.65918 | 8.53802 | 31046 ft | 454 kts | 156° |
| 2026-05-07 17:20 | 49.60207 | 8.57962 | 31045 ft | 454 kts | 156° |
| 2026-05-07 17:21 | 49.54523 | 8.62090 | 31046 ft | 455 kts | 156° |
| 2026-05-07 17:21 | 49.48796 | 8.66238 | 31047 ft | 455 kts | 156° |
| 2026-05-07 17:22 | 49.43060 | 8.70338 | 31046 ft | 455 kts | 157° |
| 2026-05-07 17:22 | 49.37283 | 8.74348 | 31038 ft | 456 kts | 157° |
| 2026-05-07 17:23 | 49.31503 | 8.78353 | 31049 ft | 456 kts | 157° |
| 2026-05-07 17:23 | 49.25726 | 8.82363 | 31042 ft | 456 kts | 157° |
| 2026-05-07 17:24 | 49.19979 | 8.86344 | 31048 ft | 456 kts | 157° |
| 2026-05-07 17:24 | 49.14191 | 8.90327 | 31039 ft | 456 kts | 158° |
| 2026-05-07 17:25 | 49.08384 | 8.94304 | 31044 ft | 457 kts | 158° |
| 2026-05-07 17:25 | 49.02577 | 8.98276 | 31046 ft | 458 kts | 158° |
| 2026-05-07 17:26 | 48.96751 | 9.02252 | 31040 ft | 458 kts | 158° |
| 2026-05-07 17:26 | 48.91906 | 9.05551 | 31037 ft | 459 kts | 158° |
| 2026-05-07 17:27 | 48.85120 | 9.10160 | 31049 ft | 459 kts | 158° |
| 2026-05-07 17:27 | 48.79275 | 9.14119 | 31047 ft | 460 kts | 158° |
| 2026-05-07 17:28 | 48.74407 | 9.17409 | 31053 ft | 461 kts | 158° |
| 2026-05-07 17:28 | 48.68552 | 9.21358 | 31043 ft | 460 kts | 158° |
| 2026-05-07 17:29 | 48.62703 | 9.25292 | 31045 ft | 459 kts | 158° |
| 2026-05-07 17:29 | 48.56759 | 9.28729 | 31050 ft | 456 kts | 163° |
| 2026-05-07 17:30 | 48.50731 | 9.31703 | 31034 ft | 455 kts | 164° |
| 2026-05-07 17:30 | 48.44714 | 9.34688 | 31034 ft | 455 kts | 164° |
| 2026-05-07 17:31 | 48.38716 | 9.37731 | 31036 ft | 455 kts | 163° |
| 2026-05-07 17:31 | 48.32723 | 9.40790 | 31035 ft | 454 kts | 163° |
| 2026-05-07 17:32 | 48.26726 | 9.43845 | 31031 ft | 455 kts | 163° |
| 2026-05-07 17:32 | 48.20737 | 9.46886 | 31032 ft | 454 kts | 164° |
| 2026-05-07 17:33 | 48.14749 | 9.49918 | 31028 ft | 454 kts | 164° |
| 2026-05-07 17:33 | 48.08764 | 9.52941 | 31026 ft | 454 kts | 164° |
| 2026-05-07 17:34 | 48.02862 | 9.56022 | 30546 ft | 449 kts | 159° |
| 2026-05-07 17:34 | 48.00106 | 9.58172 | 30109 ft | 446 kts | 148° |
| 2026-05-07 17:34 | 47.97588 | 9.60859 | 29645 ft | 442 kts | 146° |
| 2026-05-07 17:35 | 47.95141 | 9.63563 | 29215 ft | 435 kts | 146° |
| 2026-05-07 17:35 | 47.92722 | 9.66236 | 28755 ft | 430 kts | 146° |
| 2026-05-07 17:35 | 47.90327 | 9.68864 | 28297 ft | 425 kts | 146° |
| 2026-05-07 17:35 | 47.87945 | 9.71457 | 27835 ft | 421 kts | 146° |
| 2026-05-07 17:36 | 47.85586 | 9.74008 | 27375 ft | 417 kts | 146° |
| 2026-05-07 17:36 | 47.83240 | 9.76534 | 26937 ft | 413 kts | 146° |
| 2026-05-07 17:36 | 47.80913 | 9.79033 | 26480 ft | 410 kts | 146° |
| 2026-05-07 17:36 | 47.78606 | 9.81506 | 26033 ft | 407 kts | 146° |
| 2026-05-07 17:37 | 47.76316 | 9.83959 | 25603 ft | 404 kts | 146° |
| 2026-05-07 17:37 | 47.74075 | 9.86356 | 25179 ft | 401 kts | 146° |
| 2026-05-07 17:37 | 47.71816 | 9.88770 | 24753 ft | 398 kts | 146° |
| 2026-05-07 17:37 | 47.69573 | 9.91165 | 24325 ft | 396 kts | 146° |
| 2026-05-07 17:38 | 47.67348 | 9.93539 | 23904 ft | 393 kts | 146° |
| 2026-05-07 17:38 | 47.65128 | 9.95905 | 23463 ft | 391 kts | 146° |
| 2026-05-07 17:38 | 47.62923 | 9.98252 | 22969 ft | 389 kts | 146° |
| 2026-05-07 17:38 | 47.60729 | 10.00585 | 22519 ft | 386 kts | 146° |
| 2026-05-07 17:39 | 47.58559 | 10.02890 | 22098 ft | 383 kts | 146° |
| 2026-05-07 17:39 | 47.56398 | 10.05184 | 21655 ft | 380 kts | 146° |
| 2026-05-07 17:39 | 47.54262 | 10.07449 | 21244 ft | 377 kts | 146° |
| 2026-05-07 17:39 | 47.52133 | 10.09704 | 20835 ft | 374 kts | 146° |
| 2026-05-07 17:40 | 47.50021 | 10.11940 | 20412 ft | 372 kts | 146° |
| 2026-05-07 17:40 | 47.47923 | 10.14158 | 20007 ft | 369 kts | 147° |
| 2026-05-07 17:40 | 47.45833 | 10.16364 | 19582 ft | 367 kts | 146° |
| 2026-05-07 17:40 | 47.43783 | 10.18514 | 19202 ft | 365 kts | 148° |
| 2026-05-07 17:41 | 47.41657 | 10.20528 | 18800 ft | 362 kts | 150° |
| 2026-05-07 17:41 | 47.39508 | 10.22458 | 18400 ft | 361 kts | 151° |
| 2026-05-07 17:41 | 47.37365 | 10.24382 | 17952 ft | 359 kts | 150° |
| 2026-05-07 17:41 | 47.35244 | 10.26305 | 17507 ft | 357 kts | 150° |
| 2026-05-07 17:42 | 47.33297 | 10.28547 | 17075 ft | 358 kts | 131° |
| 2026-05-07 17:42 | 47.32035 | 10.31689 | 16695 ft | 357 kts | 110° |
| 2026-05-07 17:42 | 47.31452 | 10.35209 | 16586 ft | 348 kts | 102° |
| 2026-05-07 17:42 | 47.31011 | 10.38656 | 16485 ft | 337 kts | 101° |
| 2026-05-07 17:43 | 47.30591 | 10.41996 | 16392 ft | 326 kts | 101° |
| 2026-05-07 17:43 | 47.30172 | 10.45234 | 16313 ft | 316 kts | 102° |
| 2026-05-07 17:43 | 47.29755 | 10.48364 | 16230 ft | 306 kts | 102° |
| 2026-05-07 17:43 | 47.29344 | 10.51388 | 16148 ft | 297 kts | 102° |
| 2026-05-07 17:44 | 47.28942 | 10.54324 | 16059 ft | 286 kts | 102° |
| 2026-05-07 17:44 | 47.28576 | 10.57165 | 15786 ft | 279 kts | 96° |
| 2026-05-07 17:44 | 47.28614 | 10.59998 | 15429 ft | 276 kts | 84° |
| 2026-05-07 17:44 | 47.28804 | 10.62809 | 14994 ft | 277 kts | 85° |
| 2026-05-07 17:45 | 47.28981 | 10.65636 | 14583 ft | 276 kts | 85° |
| 2026-05-07 17:45 | 47.29138 | 10.68432 | 14264 ft | 272 kts | 86° |
| 2026-05-07 17:45 | 47.29284 | 10.71199 | 13908 ft | 271 kts | 86° |
| 2026-05-07 17:45 | 47.29427 | 10.73973 | 13521 ft | 271 kts | 86° |
| 2026-05-07 17:46 | 47.29568 | 10.76739 | 13174 ft | 268 kts | 86° |
| 2026-05-07 17:46 | 47.29706 | 10.79474 | 12749 ft | 268 kts | 86° |
| 2026-05-07 17:46 | 47.29842 | 10.82202 | 12336 ft | 267 kts | 86° |
| 2026-05-07 17:46 | 47.29978 | 10.84928 | 11932 ft | 265 kts | 86° |
| 2026-05-07 17:47 | 47.30110 | 10.87581 | 11623 ft | 262 kts | 86° |
| 2026-05-07 17:47 | 47.30243 | 10.90288 | 11200 ft | 262 kts | 86° |
| 2026-05-07 17:47 | 47.30377 | 10.93022 | 10473 ft | 275 kts | 85° |
| 2026-05-07 17:47 | 47.30516 | 10.95852 | 9771 ft | 285 kts | 85° |
| 2026-05-07 17:48 | 47.30661 | 10.98819 | 8984 ft | 294 kts | 86° |
| 2026-05-07 17:48 | 47.30807 | 11.01858 | 8218 ft | 301 kts | 85° |
| 2026-05-07 17:48 | 47.30956 | 11.04970 | 7462 ft | 306 kts | 86° |
| 2026-05-07 17:48 | 47.30894 | 11.08101 | 6724 ft | 309 kts | 102° |
| 2026-05-07 17:49 | 47.30060 | 11.10992 | 6087 ft | 307 kts | 120° |
| 2026-05-07 17:49 | 47.29008 | 11.13720 | 5413 ft | 305 kts | 117° |
| 2026-05-07 17:49 | 47.28025 | 11.16467 | 4771 ft | 301 kts | 115° |
| 2026-05-07 17:49 | 47.27096 | 11.19209 | 4165 ft | 298 kts | 115° |
| 2026-05-07 17:50 | 47.26191 | 11.21933 | 3540 ft | 297 kts | 116° |
| 2026-05-07 17:50 | 47.25319 | 11.24633 | 3158 ft | 287 kts | 111° |
| 2026-05-07 17:50 | 47.25017 | 11.27374 | 3010 ft | 269 kts | 80° |
| 2026-05-07 17:50 | 47.25425 | 11.29965 | 2991 ft | 248 kts | 78° |
| 2026-05-07 17:51 | 47.25735 | 11.32336 | 2965 ft | 231 kts | 79° |
| 2026-05-07 17:51 | 47.26035 | 11.34554 | 3308 ft | 220 kts | 76° |
| 2026-05-07 17:51 | 47.26350 | 11.36791 | 3958 ft | 224 kts | 82° |
| 2026-05-07 17:51 | 47.26578 | 11.39083 | 4625 ft | 229 kts | 81° |
| 2026-05-07 17:52 | 47.26845 | 11.41426 | 5288 ft | 236 kts | 79° |
| 2026-05-07 17:52 | 47.27187 | 11.43853 | 5948 ft | 248 kts | 75° |
| 2026-05-07 17:52 | 47.27677 | 11.46320 | 6748 ft | 253 kts | 71° |
| 2026-05-07 17:52 | 47.28274 | 11.48732 | 7720 ft | 249 kts | 68° |
| 2026-05-07 17:53 | 47.28941 | 11.51161 | 8272 ft | 267 kts | 66° |
| 2026-05-07 17:53 | 47.29680 | 11.53799 | 8674 ft | 288 kts | 66° |
| 2026-05-07 17:53 | 47.30449 | 11.56537 | 9355 ft | 291 kts | 67° |
| 2026-05-07 17:53 | 47.31220 | 11.59291 | 9475 ft | 291 kts | 66° |
| 2026-05-07 17:54 | 47.31991 | 11.62049 | 9497 ft | 293 kts | 66° |
| 2026-05-07 17:54 | 47.32760 | 11.64811 | 9477 ft | 288 kts | 67° |
| 2026-05-07 17:54 | 47.33507 | 11.67493 | 9474 ft | 277 kts | 66° |
| 2026-05-07 17:54 | 47.34221 | 11.70064 | 9498 ft | 264 kts | 67° |
| 2026-05-07 17:55 | 47.34905 | 11.72527 | 9481 ft | 256 kts | 67° |
| 2026-05-07 17:55 | 47.35569 | 11.74916 | 9493 ft | 253 kts | 67° |
| 2026-05-07 17:55 | 47.36246 | 11.77359 | 9506 ft | 255 kts | 67° |
| 2026-05-07 17:55 | 47.36910 | 11.79756 | 9513 ft | 257 kts | 67° |
| 2026-05-07 17:56 | 47.37600 | 11.82208 | 9498 ft | 260 kts | 64° |
| 2026-05-07 17:56 | 47.38521 | 11.84481 | 9501 ft | 257 kts | 54° |
| 2026-05-07 17:56 | 47.39561 | 11.86631 | 9496 ft | 257 kts | 53° |
| 2026-05-07 17:56 | 47.40603 | 11.88779 | 9493 ft | 257 kts | 53° |
| 2026-05-07 17:57 | 47.41634 | 11.90932 | 9516 ft | 257 kts | 53° |
| 2026-05-07 17:57 | 47.42313 | 11.92362 | 9510 ft | 257 kts | 53° |
| 2026-05-07 17:57 | 47.43725 | 11.95221 | 9509 ft | 258 kts | 48° |
| 2026-05-07 17:57 | 47.44932 | 11.97214 | 9755 ft | 261 kts | 45° |
| 2026-05-07 17:58 | 47.46375 | 11.98818 | 10454 ft | 261 kts | 19° |
| 2026-05-07 17:58 | 47.48130 | 11.99213 | 11254 ft | 256 kts | 350° |
| 2026-05-07 17:58 | 47.49790 | 11.98360 | 12000 ft | 253 kts | 328° |
| 2026-05-07 17:58 | 47.51328 | 11.96954 | 12440 ft | 271 kts | 325° |
| 2026-05-07 17:59 | 47.52977 | 11.95404 | 12755 ft | 288 kts | 325° |
| 2026-05-07 17:59 | 47.54678 | 11.93742 | 13001 ft | 298 kts | 324° |
| 2026-05-07 17:59 | 47.56401 | 11.92041 | 13001 ft | 296 kts | 324° |
| 2026-05-07 17:59 | 47.58042 | 11.90216 | 12992 ft | 300 kts | 310° |
| 2026-05-07 18:00 | 47.59017 | 11.87411 | 13027 ft | 320 kts | 280° |
| 2026-05-07 18:00 | 47.58935 | 11.84072 | 13014 ft | 343 kts | 253° |
| 2026-05-07 18:00 | 47.58001 | 11.80707 | 13008 ft | 360 kts | 248° |
| 2026-05-07 18:00 | 47.57053 | 11.77251 | 13017 ft | 363 kts | 249° |
| 2026-05-07 18:01 | 47.56161 | 11.73781 | 13000 ft | 359 kts | 250° |
| 2026-05-07 18:01 | 47.55309 | 11.70307 | 12996 ft | 358 kts | 251° |
| 2026-05-07 18:01 | 47.54490 | 11.66831 | 12989 ft | 357 kts | 252° |
| 2026-05-07 18:01 | 47.53748 | 11.63312 | 12998 ft | 357 kts | 253° |
| 2026-05-07 18:02 | 47.52327 | 11.56262 | 12982 ft | 358 kts | 254° |
| 2026-05-07 18:02 | 47.51631 | 11.52780 | 12989 ft | 358 kts | 254° |
| 2026-05-07 18:02 | 47.50924 | 11.49234 | 12973 ft | 358 kts | 254° |
| 2026-05-07 18:03 | 47.50229 | 11.45707 | 13017 ft | 358 kts | 254° |
| 2026-05-07 18:03 | 47.49528 | 11.42171 | 13029 ft | 357 kts | 254° |
| 2026-05-07 18:03 | 47.48823 | 11.38628 | 12993 ft | 360 kts | 254° |
| 2026-05-07 18:03 | 47.48116 | 11.35077 | 12985 ft | 359 kts | 254° |
| 2026-05-07 18:04 | 47.47417 | 11.31535 | 13004 ft | 361 kts | 254° |
| 2026-05-07 18:04 | 47.46713 | 11.27964 | 12999 ft | 362 kts | 254° |
| 2026-05-07 18:04 | 47.46012 | 11.24392 | 12987 ft | 361 kts | 254° |
| 2026-05-07 18:04 | 47.45313 | 11.20819 | 12995 ft | 361 kts | 254° |
| 2026-05-07 18:05 | 47.44618 | 11.17255 | 12986 ft | 361 kts | 254° |
| 2026-05-07 18:05 | 47.43934 | 11.13738 | 13000 ft | 360 kts | 254° |
| 2026-05-07 18:05 | 47.43242 | 11.10177 | 13004 ft | 360 kts | 254° |
| 2026-05-07 18:05 | 47.42550 | 11.06623 | 13011 ft | 360 kts | 254° |
| 2026-05-07 18:06 | 47.41856 | 11.03067 | 13001 ft | 360 kts | 253° |
| 2026-05-07 18:06 | 47.41163 | 10.99515 | 12999 ft | 359 kts | 254° |
| 2026-05-07 18:06 | 47.40472 | 10.95968 | 13013 ft | 359 kts | 254° |
| 2026-05-07 18:06 | 47.39781 | 10.92420 | 13004 ft | 360 kts | 254° |
| 2026-05-07 18:07 | 47.39099 | 10.88860 | 13003 ft | 361 kts | 257° |
| 2026-05-07 18:07 | 47.38923 | 10.85180 | 13001 ft | 361 kts | 276° |
| 2026-05-07 18:07 | 47.39393 | 10.81539 | 13011 ft | 362 kts | 282° |
| 2026-05-07 18:07 | 47.40004 | 10.77937 | 13013 ft | 362 kts | 283° |
| 2026-05-07 18:08 | 47.40644 | 10.74346 | 13006 ft | 361 kts | 283° |
| 2026-05-07 18:08 | 47.41293 | 10.70765 | 13022 ft | 361 kts | 284° |
| 2026-05-07 18:08 | 47.41943 | 10.67192 | 13014 ft | 361 kts | 284° |
| 2026-05-07 18:08 | 47.42599 | 10.63611 | 13010 ft | 356 kts | 284° |
| 2026-05-07 18:09 | 47.43233 | 10.60153 | 13001 ft | 340 kts | 284° |
| 2026-05-07 18:09 | 47.43838 | 10.56861 | 12981 ft | 323 kts | 284° |
| 2026-05-07 18:09 | 47.44405 | 10.53786 | 13010 ft | 303 kts | 284° |
| 2026-05-07 18:09 | 47.44924 | 10.50882 | 13000 ft | 280 kts | 279° |
| 2026-05-07 18:10 | 47.44779 | 10.48162 | 13019 ft | 261 kts | 246° |
| 2026-05-07 18:10 | 47.43653 | 10.46191 | 13046 ft | 253 kts | 215° |
| 2026-05-07 18:10 | 47.42108 | 10.44907 | 13037 ft | 257 kts | 206° |
| 2026-05-07 18:10 | 47.40385 | 10.44170 | 13011 ft | 258 kts | 189° |
| 2026-05-07 18:11 | 47.38592 | 10.44250 | 12997 ft | 259 kts | 172° |
| 2026-05-07 18:11 | 47.37444 | 10.44713 | 13053 ft | 262 kts | 161° |
| 2026-05-07 18:11 | 47.35406 | 10.46803 | 13050 ft | 273 kts | 137° |
| 2026-05-07 18:11 | 47.34062 | 10.48808 | 13035 ft | 274 kts | 137° |
| 2026-05-07 18:12 | 47.32731 | 10.50811 | 13012 ft | 272 kts | 137° |
| 2026-05-07 18:12 | 47.31410 | 10.52797 | 13015 ft | 270 kts | 136° |
| 2026-05-07 18:12 | 47.30116 | 10.54739 | 13010 ft | 269 kts | 137° |
| 2026-05-07 18:12 | 47.28939 | 10.56980 | 13024 ft | 288 kts | 115° |
| 2026-05-07 18:13 | 47.28622 | 10.59858 | 13012 ft | 284 kts | 86° |
| 2026-05-07 18:13 | 47.28782 | 10.62668 | 13014 ft | 268 kts | 85° |
| 2026-05-07 18:13 | 47.28950 | 10.65340 | 12862 ft | 258 kts | 85° |
| 2026-05-07 18:13 | 47.29103 | 10.67980 | 12419 ft | 258 kts | 86° |
| 2026-05-07 18:14 | 47.29198 | 10.69718 | 12110 ft | 257 kts | 86° |
| 2026-05-07 18:14 | 47.29340 | 10.72304 | 11827 ft | 248 kts | 86° |
| 2026-05-07 18:14 | 47.29470 | 10.74792 | 11580 ft | 239 kts | 86° |
| 2026-05-07 18:14 | 47.29593 | 10.77193 | 11322 ft | 231 kts | 86° |
| 2026-05-07 18:15 | 47.29710 | 10.79531 | 10937 ft | 228 kts | 86° |
| 2026-05-07 18:15 | 47.29829 | 10.81936 | 10197 ft | 243 kts | 86° |
| 2026-05-07 18:15 | 47.29953 | 10.84418 | 9646 ft | 245 kts | 85° |
| 2026-05-07 18:15 | 47.30077 | 10.86932 | 9241 ft | 241 kts | 85° |
| 2026-05-07 18:16 | 47.30197 | 10.89347 | 8867 ft | 237 kts | 85° |
| 2026-05-07 18:16 | 47.30315 | 10.91762 | 8502 ft | 236 kts | 85° |
| 2026-05-07 18:16 | 47.30433 | 10.94164 | 8140 ft | 235 kts | 85° |
| 2026-05-07 18:16 | 47.30550 | 10.96555 | 7782 ft | 233 kts | 85° |
| 2026-05-07 18:17 | 47.30666 | 10.98929 | 7445 ft | 231 kts | 85° |
| 2026-05-07 18:17 | 47.30779 | 11.01280 | 7079 ft | 228 kts | 85° |
| 2026-05-07 18:17 | 47.30890 | 11.03603 | 6728 ft | 226 kts | 86° |
| 2026-05-07 18:17 | 47.30986 | 11.05892 | 6381 ft | 222 kts | 89° |
| 2026-05-07 18:18 | 47.30794 | 11.08102 | 6025 ft | 213 kts | 107° |
| 2026-05-07 18:18 | 47.30219 | 11.10054 | 5698 ft | 203 kts | 116° |
| 2026-05-07 18:18 | 47.29589 | 11.11853 | 5386 ft | 193 kts | 116° |
| 2026-05-07 18:18 | 47.28994 | 11.13565 | 5129 ft | 182 kts | 114° |
| 2026-05-07 18:19 | 47.28447 | 11.15174 | 4834 ft | 173 kts | 115° |
| 2026-05-07 18:19 | 47.27930 | 11.16710 | 4600 ft | 163 kts | 114° |
| 2026-05-07 18:19 | 47.27429 | 11.18218 | 4342 ft | 165 kts | 114° |
| 2026-05-07 18:19 | 47.26926 | 11.19734 | 4130 ft | 161 kts | 115° |
| 2026-05-07 18:20 | 47.26448 | 11.21175 | 3866 ft | 153 kts | 115° |
| 2026-05-07 18:20 | 47.25989 | 11.22562 | 3633 ft | 150 kts | 115° |
| 2026-05-07 18:20 | 47.25553 | 11.23954 | 3480 ft | 150 kts | 110° |
| 2026-05-07 18:20 | 47.25416 | 11.25459 | 3321 ft | 150 kts | 84° |
| 2026-05-07 18:21 | 47.25565 | 11.26934 | 3116 ft | 141 kts | 78° |
| 2026-05-07 18:21 | 47.25729 | 11.28349 | 2779 ft | 139 kts | 79° |
| 2026-05-07 18:21 | 47.25802 | 11.29767 | 2571 ft | 142 kts | 92° |
| 2026-05-07 18:21 | 47.25746 | 11.31207 | 2306 ft | 138 kts | 86° |
| 2026-05-07 18:22 | 47.25826 | 11.32547 | 2033 ft | 130 kts | 82° |
| 2026-05-07 18:22 | 47.25921 | 11.33447 | 1913 ft | 132 kts | 80° |
| 2026-05-07 18:22 | 47.26067 | 11.34819 | 1893 ft | 63 kts | 81° |
| 2026-05-07 18:22 | 47.26098 | 11.35108 | 1896 ft | 19 kts | 81° |
| 2026-05-07 18:23 | 47.26098 | 11.35233 | 1896 ft | 9 kts | 128° |
| 2026-05-07 18:23 | 47.26040 | 11.35264 | 1901 ft | 9 kts | 169° |
| 2026-05-07 18:23 | 47.25976 | 11.35280 | 1899 ft | 9 kts | 172° |
| 2026-05-07 18:23 | 47.25914 | 11.35280 | 1899 ft | 9 kts | 207° |
| 2026-05-07 18:24 | 47.25893 | 11.35197 | 1894 ft | 9 kts | 262° |
| 2026-05-07 18:24 | 47.25883 | 11.35117 | 1903 ft | 3 kts | 225° |
| 2026-05-07 18:24 | 47.25881 | 11.35116 | 1903 ft | 0 kts | 217° |
| 2026-05-07 18:25 | 47.25857 | 11.35107 | 1901 ft | 6 kts | 185° |
| 2026-05-07 18:25 | 47.25829 | 11.35110 | 1896 ft | 2 kts | 174° |